Time;durP1;ratioP1;P1;durP2;ratioP2;P2;SDS_P1;SDS_P2;PMS_P1;PMS_P2;Temp;Humidity;BMP_temperature;BMP_pressure;BME280_temperature;BME280_humidity;BME280_pressure;Samples;Min_cycle;Max_cycle;Signal;HPM_P1;HPM_P2
2023/05/26 00:00:23;;;;;;;10.00;3.90;;;21.70;45.00;;;;;;5002624;28;20492;-85
2023/05/26 00:02:53;;;;;;;10.70;4.17;;;21.60;45.00;;;;;;4999989;28;20549;-84
2023/05/26 00:05:21;;;;;;;16.47;4.63;;;21.70;45.10;;;;;;5000122;28;20472;-84
2023/05/26 00:07:51;;;;;;;11.63;4.40;;;21.60;45.00;;;;;;5002149;28;20460;-84
2023/05/26 00:10:21;;;;;;;13.40;4.20;;;21.60;45.10;;;;;;4998394;28;20469;-82
2023/05/26 00:12:49;;;;;;;11.23;4.67;;;21.50;45.00;;;;;;4998881;28;20445;-83
2023/05/26 00:15:17;;;;;;;13.90;4.40;;;21.50;45.00;;;;;;4994822;28;20469;-83
2023/05/26 00:17:47;;;;;;;7.03;4.27;;;21.50;45.20;;;;;;5001698;28;20454;-82
2023/05/26 00:20:17;;;;;;;15.23;4.70;;;21.50;45.20;;;;;;5001949;28;20445;-84
2023/05/26 00:22:45;;;;;;;8.37;4.43;;;21.40;45.20;;;;;;5002639;28;20449;-84
2023/05/26 00:25:13;;;;;;;12.40;4.40;;;21.40;45.20;;;;;;5001600;28;20473;-84
2023/05/26 00:27:41;;;;;;;9.53;4.40;;;21.40;45.30;;;;;;5000126;28;20446;-85
2023/05/26 00:30:11;;;;;;;10.93;4.23;;;21.30;45.20;;;;;;5001276;28;20445;-86
2023/05/26 00:32:39;;;;;;;9.83;4.00;;;21.30;45.30;;;;;;5000807;28;20480;-85
2023/05/26 00:35:07;;;;;;;8.00;3.67;;;21.30;45.40;;;;;;5000567;28;20548;-85
2023/05/26 00:37:37;;;;;;;8.37;3.87;;;21.30;45.30;;;;;;5000691;28;20453;-85
2023/05/26 00:40:06;;;;;;;12.87;4.60;;;21.30;45.40;;;;;;5000071;28;20449;-85
2023/05/26 00:42:34;;;;;;;16.43;4.90;;;21.20;45.50;;;;;;5002107;28;20453;-84
2023/05/26 00:45:02;;;;;;;9.20;3.77;;;21.20;45.50;;;;;;5000413;28;20465;-85
2023/05/26 00:47:31;;;;;;;18.03;4.60;;;21.20;45.50;;;;;;4993128;28;20545;-86
2023/05/26 00:49:59;;;;;;;11.07;4.00;;;21.20;45.50;;;;;;4996776;28;20438;-86
2023/05/26 00:52:27;;;;;;;9.30;4.27;;;21.10;45.50;;;;;;4999628;28;20473;-86
2023/05/26 00:54:57;;;;;;;12.80;4.80;;;21.10;45.60;;;;;;5001111;28;20473;-86
2023/05/26 00:57:27;;;;;;;13.77;4.10;;;21.10;45.50;;;;;;5000221;28;20453;-86
2023/05/26 00:59:56;;;;;;;10.83;4.00;;;21.10;45.60;;;;;;4999463;28;20456;-85
2023/05/26 01:02:25;;;;;;;8.83;4.00;;;21.10;45.60;;;;;;5000224;28;20441;-86
2023/05/26 01:04:53;;;;;;;10.20;4.47;;;21.00;45.60;;;;;;5000833;28;20471;-85
2023/05/26 01:07:22;;;;;;;19.60;4.30;;;21.00;45.60;;;;;;5002698;28;20449;-86
2023/05/26 01:09:50;;;;;;;7.23;4.10;;;21.00;45.70;;;;;;5002344;28;20449;-85
2023/05/26 01:12:23;;;;;;;12.63;3.93;;;20.90;45.70;;;;;;5000754;28;20477;-85
2023/05/26 01:14:54;;;;;;;10.23;4.53;;;20.90;45.70;;;;;;5003555;28;20547;-85
2023/05/26 01:17:26;;;;;;;9.00;4.40;;;20.90;45.70;;;;;;5002991;28;20457;-85
2023/05/26 01:20:13;;;;;;;11.10;4.47;;;20.90;45.80;;;;;;5002677;28;20469;-85
2023/05/26 01:23:20;;;;;;;11.37;5.37;;;20.90;45.80;;;;;;5000767;28;20512;-86
2023/05/26 01:26:21;;;;;;;10.23;3.93;;;20.80;45.70;;;;;;4999374;28;20473;-86
2023/05/26 01:28:56;;;;;;;9.20;4.30;;;20.80;45.70;;;;;;4999015;28;20543;-84
2023/05/26 01:31:24;;;;;;;10.77;4.50;;;20.70;45.90;;;;;;5005165;28;20473;-84
2023/05/26 01:33:52;;;;;;;11.27;4.57;;;20.70;45.90;;;;;;5005852;28;20438;-84
2023/05/26 01:36:21;;;;;;;11.83;4.13;;;20.70;46.00;;;;;;5004171;28;20431;-84
2023/05/26 01:38:49;;;;;;;7.20;3.77;;;20.70;46.00;;;;;;5003719;28;20476;-84
2023/05/26 01:41:20;;;;;;;14.97;4.80;;;20.80;46.10;;;;;;5003434;28;20468;-84
2023/05/26 01:43:51;;;;;;;8.20;3.73;;;20.70;46.00;;;;;;4996879;28;20449;-83
2023/05/26 01:46:25;;;;;;;8.40;4.47;;;20.70;46.00;;;;;;4996718;28;20441;-84
2023/05/26 01:48:55;;;;;;;13.30;4.63;;;20.70;46.00;;;;;;4995082;28;20487;-84
2023/05/26 01:51:23;;;;;;;12.07;4.33;;;20.60;46.00;;;;;;4987227;28;20524;-84
2023/05/26 01:53:53;;;;;;;10.23;4.20;;;20.60;46.10;;;;;;4992237;28;20513;-84
2023/05/26 01:56:22;;;;;;;11.00;4.57;;;20.60;46.10;;;;;;4995436;28;20445;-84
2023/05/26 01:58:50;;;;;;;9.33;4.27;;;20.60;46.10;;;;;;4997084;28;20445;-85
2023/05/26 02:01:18;;;;;;;8.57;4.37;;;20.60;46.20;;;;;;5003145;28;20441;-86
2023/05/26 02:03:48;;;;;;;8.70;4.70;;;20.50;46.20;;;;;;5003891;28;20437;-85
2023/05/26 02:06:16;;;;;;;11.27;4.50;;;20.50;46.20;;;;;;5001183;28;20469;-83
2023/05/26 02:08:44;;;;;;;9.60;4.30;;;20.50;46.20;;;;;;5006148;28;20450;-84
2023/05/26 02:11:12;;;;;;;10.10;4.30;;;20.50;46.20;;;;;;5007173;28;20468;-84
2023/05/26 02:13:40;;;;;;;15.30;4.83;;;20.40;46.10;;;;;;5007325;28;20469;-83
2023/05/26 02:16:08;;;;;;;8.53;3.50;;;20.40;46.20;;;;;;5007973;28;20449;-84
2023/05/26 02:18:37;;;;;;;10.17;4.47;;;20.40;46.20;;;;;;5008838;28;20516;-84
2023/05/26 02:21:06;;;;;;;8.07;4.07;;;20.40;46.10;;;;;;5009525;28;20437;-84
2023/05/26 02:23:34;;;;;;;9.73;4.60;;;20.40;46.40;;;;;;5008970;28;20437;-85
2023/05/26 02:26:02;;;;;;;9.50;4.17;;;20.30;46.30;;;;;;5002870;28;20445;-84
2023/05/26 02:28:31;;;;;;;11.13;4.20;;;20.40;46.30;;;;;;4999718;28;20446;-84
2023/05/26 02:30:59;;;;;;;14.87;5.17;;;20.30;46.30;;;;;;4996930;28;20481;-85
2023/05/26 02:33:27;;;;;;;12.77;4.20;;;20.30;46.30;;;;;;5001796;28;20433;-86
2023/05/26 02:35:55;;;;;;;10.63;4.13;;;20.30;46.30;;;;;;5004257;28;20477;-86
2023/05/26 02:38:25;;;;;;;9.87;3.90;;;20.30;46.30;;;;;;5016104;28;20422;-85
2023/05/26 02:40:53;;;;;;;8.60;3.50;;;20.20;46.90;;;;;;4998584;28;20499;-84
2023/05/26 02:43:23;;;;;;;8.87;4.30;;;20.30;46.50;;;;;;4998549;28;20445;-85
2023/05/26 02:45:51;;;;;;;13.40;4.80;;;20.20;46.40;;;;;;4993086;28;20492;-84
2023/05/26 02:48:19;;;;;;;8.83;4.20;;;20.20;46.40;;;;;;5001402;28;20445;-84
2023/05/26 02:50:47;;;;;;;11.63;4.40;;;20.20;46.60;;;;;;5002066;28;20469;-84
2023/05/26 02:53:15;;;;;;;11.00;4.30;;;20.20;46.60;;;;;;5002939;28;20547;-85
2023/05/26 02:55:45;;;;;;;10.87;4.13;;;20.10;46.40;;;;;;5000968;28;20486;-84
2023/05/26 02:58:14;;;;;;;9.57;4.07;;;20.10;46.40;;;;;;4999281;28;20540;-85
2023/05/26 03:00:42;;;;;;;9.30;4.30;;;20.10;46.50;;;;;;5003097;28;20437;-84
2023/05/26 03:03:10;;;;;;;10.37;4.33;;;20.10;46.70;;;;;;5000722;28;20438;-84
2023/05/26 03:05:39;;;;;;;11.10;4.17;;;20.00;46.50;;;;;;5002033;28;21052;-85
2023/05/26 03:08:07;;;;;;;9.27;4.57;;;20.00;46.70;;;;;;5004474;28;20445;-85
2023/05/26 03:10:36;;;;;;;8.37;4.10;;;20.00;46.70;;;;;;5002777;28;20445;-85
2023/05/26 03:13:05;;;;;;;9.57;4.00;;;20.00;46.70;;;;;;5004795;28;20469;-84
2023/05/26 03:15:34;;;;;;;8.70;4.00;;;20.00;46.60;;;;;;4995668;28;20472;-84
2023/05/26 03:18:03;;;;;;;10.30;4.50;;;19.90;46.80;;;;;;5004685;28;20446;-84
2023/05/26 03:20:31;;;;;;;6.77;3.97;;;19.90;46.70;;;;;;5002169;28;20445;-86
2023/05/26 03:22:59;;;;;;;6.53;4.00;;;20.00;46.80;;;;;;5004914;28;20445;-85
2023/05/26 03:25:28;;;;;;;7.50;3.77;;;19.90;46.60;;;;;;5005370;28;20501;-86
2023/05/26 03:27:56;;;;;;;9.77;4.50;;;19.90;46.80;;;;;;5005182;28;20445;-86
2023/05/26 03:30:25;;;;;;;8.73;3.83;;;19.90;46.80;;;;;;5003971;28;20461;-84
2023/05/26 03:32:53;;;;;;;6.93;3.50;;;19.90;46.70;;;;;;5004462;28;20473;-85
2023/05/26 03:35:22;;;;;;;10.80;4.20;;;19.90;46.90;;;;;;5003522;28;20473;-85
2023/05/26 03:37:50;;;;;;;10.53;4.50;;;19.80;46.70;;;;;;5005211;28;20453;-85
2023/05/26 03:40:18;;;;;;;6.87;4.17;;;19.80;46.90;;;;;;5003816;28;20472;-85
2023/05/26 03:42:46;;;;;;;10.93;4.33;;;19.80;46.60;;;;;;5004492;28;20450;-85
2023/05/26 03:45:15;;;;;;;8.33;3.83;;;19.70;46.90;;;;;;5005401;28;20465;-85
2023/05/26 03:47:45;;;;;;;8.10;3.73;;;19.70;46.80;;;;;;5005527;28;20568;-85
2023/05/26 03:50:13;;;;;;;8.40;3.83;;;19.70;47.00;;;;;;5003976;28;20528;-84
2023/05/26 03:52:41;;;;;;;7.10;4.03;;;19.80;47.00;;;;;;5004736;28;20477;-85
2023/05/26 03:55:10;;;;;;;8.17;3.97;;;19.70;47.00;;;;;;5004548;28;20462;-85
2023/05/26 03:57:39;;;;;;;8.47;4.40;;;19.70;46.90;;;;;;5003146;28;20445;-85
2023/05/26 04:00:10;;;;;;;8.17;4.13;;;19.70;47.00;;;;;;5002338;28;20544;-85
2023/05/26 04:02:38;;;;;;;7.77;4.10;;;19.70;46.90;;;;;;5000247;28;20445;-84
2023/05/26 04:05:08;;;;;;;10.00;4.13;;;19.70;46.90;;;;;;4995147;28;20475;-84
2023/05/26 04:07:36;;;;;;;8.50;4.03;;;19.70;47.00;;;;;;5000595;28;20449;-84
2023/05/26 04:10:06;;;;;;;8.87;4.10;;;19.70;47.10;;;;;;5000364;28;20450;-85
2023/05/26 04:12:34;;;;;;;9.37;3.87;;;19.70;46.90;;;;;;5002575;28;20500;-86
2023/05/26 04:15:02;;;;;;;7.53;3.50;;;19.70;47.00;;;;;;5003986;28;20465;-85
2023/05/26 04:17:30;;;;;;;8.00;3.67;;;19.70;46.90;;;;;;5002789;28;20453;-84
2023/05/26 04:19:59;;;;;;;8.60;4.30;;;19.70;47.10;;;;;;5005003;28;20450;-86
2023/05/26 04:22:31;;;;;;;6.80;3.80;;;19.70;47.10;;;;;;5000587;28;20537;-86
2023/05/26 04:25:00;;;;;;;12.83;3.87;;;19.60;47.00;;;;;;4997531;28;20460;-86
2023/05/26 04:27:28;;;;;;;9.23;4.03;;;19.70;47.20;;;;;;5004900;28;20445;-86
2023/05/26 04:29:58;;;;;;;9.90;4.10;;;19.60;47.20;;;;;;5003755;28;20464;-84
2023/05/26 04:32:26;;;;;;;8.17;3.47;;;19.60;47.10;;;;;;5003138;28;20528;-84
2023/05/26 04:34:55;;;;;;;7.83;3.73;;;19.70;47.20;;;;;;4999035;28;20485;-85
2023/05/26 04:37:22;;;;;;;9.33;3.90;;;19.70;47.00;;;;;;5005469;28;20445;-85
2023/05/26 04:39:52;;;;;;;6.90;3.43;;;19.60;47.10;;;;;;4993986;28;20458;-84
2023/05/26 04:42:20;;;;;;;9.70;3.73;;;19.60;47.00;;;;;;5000930;28;20456;-86
2023/05/26 04:44:48;;;;;;;8.80;3.63;;;19.60;47.30;;;;;;5001239;28;20469;-85
2023/05/26 04:47:16;;;;;;;8.97;3.60;;;19.60;47.10;;;;;;5002547;28;20452;-85
2023/05/26 04:49:45;;;;;;;7.90;4.00;;;19.70;47.20;;;;;;5000080;28;20449;-85
2023/05/26 04:52:14;;;;;;;12.33;3.80;;;19.70;47.10;;;;;;4999982;28;20449;-84
2023/05/26 04:54:42;;;;;;;6.67;3.17;;;19.70;47.20;;;;;;5000098;28;20536;-84
2023/05/26 04:57:12;;;;;;;6.20;3.20;;;19.70;47.00;;;;;;5000491;28;20461;-85
2023/05/26 04:59:40;;;;;;;7.20;3.37;;;19.70;47.20;;;;;;5000199;28;20456;-85
2023/05/26 05:02:08;;;;;;;9.30;4.43;;;19.70;47.20;;;;;;4998559;28;20445;-84
2023/05/26 05:04:36;;;;;;;8.13;3.53;;;19.70;47.20;;;;;;4997763;28;20560;-83
2023/05/26 05:07:04;;;;;;;7.73;3.37;;;19.70;47.00;;;;;;4988818;28;20465;-85
2023/05/26 05:09:33;;;;;;;8.00;3.30;;;19.80;47.00;;;;;;5001255;28;20457;-83
2023/05/26 05:12:01;;;;;;;6.23;3.00;;;19.80;47.00;;;;;;5000121;28;20449;-84
2023/05/26 05:14:31;;;;;;;7.70;3.37;;;19.80;46.90;;;;;;4999954;28;20561;-83
2023/05/26 05:16:59;;;;;;;7.40;3.43;;;19.90;46.90;;;;;;4988208;28;20453;-83
2023/05/26 05:19:27;;;;;;;6.73;3.30;;;19.90;46.70;;;;;;4996667;28;20433;-84
2023/05/26 05:21:55;;;;;;;7.87;3.60;;;19.90;46.80;;;;;;4999111;28;20464;-84
2023/05/26 05:24:23;;;;;;;6.77;3.40;;;20.00;46.80;;;;;;4998044;28;20496;-84
2023/05/26 05:26:51;;;;;;;9.87;3.40;;;20.00;46.50;;;;;;4999147;28;20472;-85
2023/05/26 05:29:19;;;;;;;8.33;3.73;;;20.00;46.30;;;;;;4998968;28;20469;-85
2023/05/26 05:31:49;;;;;;;10.33;3.63;;;20.00;46.40;;;;;;4999239;28;20449;-84
2023/05/26 05:34:17;;;;;;;7.20;3.00;;;20.00;46.40;;;;;;4995627;28;20493;-85
2023/05/26 05:36:45;;;;;;;6.20;3.50;;;20.00;46.50;;;;;;4996641;28;20457;-85
2023/05/26 05:39:13;;;;;;;7.83;2.97;;;20.10;46.40;;;;;;4997980;28;20473;-85
2023/05/26 05:41:42;;;;;;;8.13;3.50;;;20.10;46.30;;;;;;4999971;28;20453;-84
2023/05/26 05:44:10;;;;;;;4.73;2.70;;;20.10;46.40;;;;;;4999699;28;20469;-83
2023/05/26 05:46:39;;;;;;;10.20;4.13;;;20.10;46.10;;;;;;4998092;28;20461;-85
2023/05/26 05:49:09;;;;;;;7.30;3.20;;;20.10;46.10;;;;;;4998996;28;20445;-84
2023/05/26 05:51:36;;;;;;;5.90;2.97;;;20.10;46.10;;;;;;4998423;28;20473;-85
2023/05/26 05:54:06;;;;;;;10.43;3.43;;;20.20;46.10;;;;;;4995842;28;20482;-85
2023/05/26 05:56:34;;;;;;;6.00;3.00;;;20.20;46.10;;;;;;4997653;28;20445;-84
2023/05/26 05:59:02;;;;;;;11.17;3.43;;;20.20;46.00;;;;;;4988874;28;20495;-84
2023/05/26 06:01:30;;;;;;;5.97;3.10;;;20.30;46.10;;;;;;4998689;28;20445;-84
2023/05/26 06:03:58;;;;;;;7.17;3.50;;;20.30;46.70;;;;;;4993989;28;20510;-84
2023/05/26 06:06:27;;;;;;;8.87;3.50;;;20.30;46.00;;;;;;4996725;28;20516;-86
2023/05/26 06:08:55;;;;;;;6.93;3.00;;;20.30;45.90;;;;;;4999247;28;20453;-84
2023/05/26 06:11:23;;;;;;;8.23;2.90;;;20.30;45.70;;;;;;5003830;28;20464;-84
2023/05/26 06:13:51;;;;;;;7.00;2.97;;;20.30;45.90;;;;;;5001351;28;20465;-86
2023/05/26 06:16:20;;;;;;;7.27;3.07;;;20.40;45.80;;;;;;4998397;28;20511;-85
2023/05/26 06:18:48;;;;;;;9.50;3.23;;;20.50;45.70;;;;;;4995957;28;20441;-86
2023/05/26 06:21:16;;;;;;;7.17;3.13;;;20.50;45.60;;;;;;5002890;28;20511;-85
2023/05/26 06:23:45;;;;;;;6.93;2.77;;;20.50;45.70;;;;;;4998973;28;20445;-86
2023/05/26 06:26:13;;;;;;;7.83;3.13;;;20.60;45.70;;;;;;5002276;28;20453;-85
2023/05/26 06:28:41;;;;;;;8.37;3.10;;;20.60;45.40;;;;;;5000680;28;20445;-85
2023/05/26 06:31:09;;;;;;;11.23;3.10;;;20.70;45.60;;;;;;5001226;28;20528;-86
2023/05/26 06:33:37;;;;;;;5.83;2.93;;;20.70;45.40;;;;;;5000163;28;20564;-85
2023/05/26 06:36:06;;;;;;;9.43;3.10;;;20.80;45.50;;;;;;4994895;28;20460;-84
2023/05/26 06:38:34;;;;;;;8.47;3.30;;;20.90;45.30;;;;;;5002269;28;20445;-85
2023/05/26 06:41:04;;;;;;;6.33;3.00;;;21.00;45.40;;;;;;4993455;28;20433;-83
2023/05/26 06:43:32;;;;;;;9.57;3.20;;;21.10;45.00;;;;;;5001410;28;20453;-86
2023/05/26 06:46:00;;;;;;;7.10;3.00;;;21.10;45.10;;;;;;5000282;28;20452;-85
2023/05/26 06:48:28;;;;;;;7.33;3.03;;;21.20;45.20;;;;;;4996858;28;20441;-85
2023/05/26 06:50:55;;;;;;;8.73;3.33;;;21.20;45.00;;;;;;4994789;28;20437;-85
2023/05/26 06:53:24;;;;;;;4.60;2.93;;;21.40;45.20;;;;;;5001047;28;20473;-85
2023/05/26 06:55:52;;;;;;;6.07;3.07;;;21.40;44.70;;;;;;5000685;28;20475;-83
2023/05/26 06:58:21;;;;;;;5.47;2.90;;;21.50;45.00;;;;;;4999848;28;20476;-85
2023/05/26 07:00:59;;;;;;;8.30;2.80;;;21.60;44.90;;;;;;5000640;28;20477;-84
2023/05/26 07:03:27;;;;;;;6.60;3.00;;;21.70;44.60;;;;;;4998883;28;20480;-85
2023/05/26 07:05:55;;;;;;;6.23;3.03;;;21.70;44.60;;;;;;4997756;28;20504;-83
2023/05/26 07:08:24;;;;;;;7.40;2.83;;;21.70;44.60;;;;;;4988788;28;20547;-83
2023/05/26 07:10:53;;;;;;;6.73;2.80;;;21.80;44.80;;;;;;4995969;28;20505;-84
2023/05/26 07:13:23;;;;;;;7.67;3.33;;;21.90;44.70;;;;;;5000713;28;20445;-83
2023/05/26 07:15:51;;;;;;;7.20;2.73;;;22.00;44.50;;;;;;5001838;28;20528;-84
2023/05/26 07:18:19;;;;;;;4.20;2.63;;;22.10;44.60;;;;;;5011086;28;20465;-83
2023/05/26 07:20:48;;;;;;;7.60;3.60;;;22.10;44.40;;;;;;4996040;28;20449;-84
2023/05/26 07:23:17;;;;;;;7.13;3.20;;;22.20;44.50;;;;;;4995938;28;20499;-84
2023/05/26 07:25:45;;;;;;;5.67;2.73;;;22.20;44.60;;;;;;4996372;28;20516;-84
2023/05/26 07:28:13;;;;;;;7.03;3.10;;;22.20;44.30;;;;;;4993804;28;20438;-83
2023/05/26 07:30:43;;;;;;;11.63;3.63;;;22.30;44.30;;;;;;5000637;28;20450;-84
2023/05/26 07:33:12;;;;;;;10.70;2.83;;;22.30;44.30;;;;;;5000352;28;20433;-84
2023/05/26 07:35:40;;;;;;;5.27;2.80;;;22.40;44.40;;;;;;4995140;28;20504;-83
2023/05/26 07:38:08;;;;;;;10.53;3.23;;;22.50;44.40;;;;;;4995394;28;20496;-84
2023/05/26 07:40:36;;;;;;;8.40;2.80;;;22.60;44.40;;;;;;4997363;28;20491;-85
2023/05/26 07:43:04;;;;;;;5.43;2.67;;;22.70;44.30;;;;;;5000859;28;20437;-84
2023/05/26 07:45:33;;;;;;;10.53;3.17;;;22.70;44.20;;;;;;4999576;28;20496;-84
2023/05/26 07:48:02;;;;;;;6.13;2.87;;;22.70;44.30;;;;;;4999960;28;20457;-86
2023/05/26 07:50:31;;;;;;;6.93;3.23;;;22.80;44.20;;;;;;4997960;28;20423;-85
2023/05/26 07:52:59;;;;;;;5.40;2.60;;;22.80;44.20;;;;;;4994657;28;20449;-84
2023/05/26 07:55:27;;;;;;;4.57;2.60;;;22.90;44.50;;;;;;4993342;28;20472;-82
2023/05/26 07:57:55;;;;;;;7.10;3.07;;;23.00;44.10;;;;;;5000411;28;20503;-82
2023/05/26 08:00:23;;;;;;;5.90;2.57;;;23.00;44.30;;;;;;4999395;28;20444;-83
2023/05/26 08:02:51;;;;;;;7.90;3.07;;;23.00;43.90;;;;;;4998672;28;20464;-83
2023/05/26 08:05:21;;;;;;;8.10;3.23;;;23.00;43.80;;;;;;4996368;28;20475;-84
2023/05/26 08:07:49;;;;;;;7.30;3.90;;;23.10;44.20;;;;;;4999694;28;20466;-83
2023/05/26 08:10:18;;;;;;;12.20;3.93;;;23.20;44.00;;;;;;5004514;28;20446;-83
2023/05/26 08:12:46;;;;;;;12.40;2.90;;;23.20;43.60;;;;;;4986612;28;20450;-83
2023/05/26 08:15:14;;;;;;;11.53;3.60;;;23.20;43.60;;;;;;5000409;28;20472;-83
2023/05/26 08:17:47;;;;;;;15.63;4.60;;;23.20;43.80;;;;;;4998282;28;20456;-80
2023/05/26 08:20:15;;;;;;;29.70;11.30;;;23.10;44.00;;;;;;4996643;28;20472;-80
2023/05/26 08:22:45;;;;;;;32.57;11.10;;;23.40;46.50;;;;;;4986091;28;20451;-79
2023/05/26 08:25:13;;;;;;;29.40;10.97;;;23.70;46.30;;;;;;4981051;28;20570;-79
2023/05/26 08:27:41;;;;;;;37.03;10.00;;;23.90;46.10;;;;;;4994413;28;20449;-79
2023/05/26 08:30:09;;;;;;;31.23;10.63;;;24.10;45.90;;;;;;4987081;28;20433;-79
2023/05/26 08:32:37;;;;;;;22.73;10.13;;;24.30;45.90;;;;;;4991596;28;20445;-78
2023/05/26 08:35:06;;;;;;;21.37;9.90;;;24.40;46.00;;;;;;4984044;28;20481;-79
2023/05/26 08:37:34;;;;;;;26.43;9.87;;;24.70;46.00;;;;;;4991144;28;20437;-80
2023/05/26 08:40:04;;;;;;;34.20;9.00;;;24.90;45.90;;;;;;4993536;28;20453;-78
2023/05/26 08:42:34;;;;;;;18.53;8.37;;;25.10;46.00;;;;;;4990888;28;20584;-78
2023/05/26 08:45:03;;;;;;;23.70;7.67;;;25.20;45.60;;;;;;4994634;28;20469;-79
2023/05/26 08:47:31;;;;;;;23.60;7.20;;;25.40;46.20;;;;;;4985602;28;20458;-79
2023/05/26 08:50:03;;;;;;;19.40;7.03;;;25.60;46.40;;;;;;4992580;28;20441;-78
2023/05/26 08:52:31;;;;;;;24.03;6.90;;;25.80;46.50;;;;;;4993768;28;20424;-78
2023/05/26 08:54:59;;;;;;;23.83;7.57;;;26.00;46.10;;;;;;4993939;28;20533;-79
2023/05/26 08:57:30;;;;;;;28.03;6.60;;;26.10;45.50;;;;;;4989923;28;20496;-78
2023/05/26 08:59:58;;;;;;;16.27;5.63;;;26.10;44.40;;;;;;4988318;28;20458;-80
2023/05/26 09:02:27;;;;;;;19.77;5.80;;;26.00;42.80;;;;;;4987050;28;20477;-79
2023/05/26 09:04:55;;;;;;;17.00;5.77;;;25.90;41.80;;;;;;4991744;28;20564;-80
2023/05/26 09:07:23;;;;;;;14.43;5.53;;;26.00;41.20;;;;;;4986135;28;20480;-82
2023/05/26 09:10:02;;;;;;;15.90;5.70;;;25.90;40.80;;;;;;4997399;28;20426;-82
2023/05/26 09:12:37;;;;;;;15.87;5.87;;;25.90;40.30;;;;;;5005367;28;20451;-84
2023/05/26 09:15:05;;;;;;;20.43;5.47;;;25.90;40.40;;;;;;5004335;28;20473;-82
2023/05/26 09:17:35;;;;;;;13.37;4.50;;;25.80;40.70;;;;;;5007150;28;20461;-82
2023/05/26 09:20:03;;;;;;;16.93;5.50;;;25.80;41.00;;;;;;5001199;28;20457;-83
2023/05/26 09:22:33;;;;;;;16.47;4.87;;;25.80;41.10;;;;;;4989962;28;20536;-82
2023/05/26 09:25:02;;;;;;;15.40;5.30;;;25.90;41.10;;;;;;5000001;28;20469;-82
2023/05/26 09:27:30;;;;;;;13.20;4.70;;;25.90;41.00;;;;;;5001058;28;20428;-82
2023/05/26 09:30:00;;;;;;;12.03;4.70;;;26.00;41.00;;;;;;5002386;28;20420;-84
2023/05/26 09:32:29;;;;;;;13.87;5.37;;;26.00;40.70;;;;;;5000729;28;20504;-83
2023/05/26 09:34:58;;;;;;;12.67;4.40;;;26.10;40.90;;;;;;4998256;28;20473;-83
2023/05/26 09:41:08;;;;;;;10.03;4.13;;;26.50;40.80;;;;;;5005912;28;20440;-85
2023/05/26 09:43:37;;;;;;;11.40;4.30;;;26.60;40.30;;;;;;5011053;28;20499;-83
2023/05/26 09:46:12;;;;;;;18.73;4.70;;;26.70;40.10;;;;;;5006350;28;20433;-85
2023/05/26 09:48:42;;;;;;;15.93;3.97;;;26.80;39.80;;;;;;5010625;28;20412;-83
2023/05/26 09:51:11;;;;;;;8.50;3.63;;;27.00;39.70;;;;;;5003115;28;20419;-83
2023/05/26 09:53:45;;;;;;;9.00;3.87;;;27.10;39.30;;;;;;5002562;28;20440;-83
2023/05/26 09:59:06;;;;;;;11.40;3.90;;;27.40;39.20;;;;;;5006890;28;20503;-83
2023/05/26 10:01:49;;;;;;;8.63;4.03;;;27.50;38.50;;;;;;5001257;28;20461;-83
2023/05/26 10:04:30;;;;;;;9.63;3.83;;;27.70;39.00;;;;;;4998155;28;20456;-83
2023/05/26 10:07:02;;;;;;;7.87;3.60;;;27.90;38.80;;;;;;4999787;28;20506;-84
2023/05/26 10:09:36;;;;;;;8.40;3.67;;;28.20;38.60;;;;;;5008973;28;20424;-84
2023/05/26 10:12:11;;;;;;;9.73;3.90;;;28.50;38.50;;;;;;5007666;28;20448;-84
2023/05/26 10:14:45;;;;;;;10.77;4.17;;;28.70;38.20;;;;;;5012935;28;20447;-84
2023/05/26 10:17:17;;;;;;;8.47;3.37;;;29.10;38.20;;;;;;5010880;28;20468;-83
2023/05/26 10:19:50;;;;;;;9.70;3.80;;;29.30;37.90;;;;;;5003917;28;20420;-84
2023/05/26 10:22:27;;;;;;;9.30;3.57;;;29.40;37.60;;;;;;5014129;28;20448;-84
2023/05/26 10:25:01;;;;;;;9.47;3.60;;;29.40;37.30;;;;;;5014497;28;20444;-84
2023/05/26 10:27:37;;;;;;;13.77;3.43;;;29.40;37.20;;;;;;5014529;28;20435;-84
2023/05/26 10:30:10;;;;;;;8.20;3.73;;;29.50;37.50;;;;;;5011758;28;20450;-84
2023/05/26 10:33:10;;;;;;;10.33;3.20;;;29.50;37.40;;;;;;5015252;28;20431;-84
2023/05/26 10:35:58;;;;;;;12.17;3.70;;;29.70;37.70;;;;;;5008362;28;20505;-83
2023/05/26 10:38:30;;;;;;;6.77;3.10;;;29.90;37.50;;;;;;5008408;28;20457;-84
2023/05/26 10:40:59;;;;;;;9.23;3.50;;;30.10;37.20;;;;;;5011022;28;20443;-84
2023/05/26 10:43:28;;;;;;;7.07;2.97;;;30.40;37.20;;;;;;5006942;28;20443;-83
2023/05/26 10:45:57;;;;;;;9.77;3.27;;;30.50;36.90;;;;;;5008230;28;20499;-81
2023/05/26 10:48:34;;;;;;;7.67;3.20;;;30.50;36.80;;;;;;5012697;28;20444;-84
2023/05/26 10:51:09;;;;;;;7.80;3.03;;;30.70;36.80;;;;;;5012805;28;20514;-84
2023/05/26 10:53:42;;;;;;;10.00;3.17;;;30.90;36.60;;;;;;5009434;28;20436;-84
2023/05/26 10:56:12;;;;;;;5.03;2.43;;;30.90;36.20;;;;;;5006155;28;20492;-84
2023/05/26 10:58:42;;;;;;;8.47;3.37;;;31.10;36.60;;;;;;5009215;28;20536;-84
2023/05/26 11:01:11;;;;;;;6.70;2.93;;;31.20;36.30;;;;;;5006342;28;20438;-84
2023/05/26 11:03:43;;;;;;;6.10;2.93;;;31.40;36.20;;;;;;5002306;28;20424;-84
2023/05/26 11:06:15;;;;;;;4.63;3.00;;;31.60;35.80;;;;;;5002042;28;20452;-84
2023/05/26 11:08:46;;;;;;;6.30;3.33;;;31.70;35.90;;;;;;5008420;28;20445;-82
2023/05/26 11:11:26;;;;;;;6.23;3.27;;;32.00;35.60;;;;;;5005698;28;20441;-82
2023/05/26 11:14:00;;;;;;;7.97;3.50;;;32.00;34.90;;;;;;5011036;28;20449;-82
2023/05/26 11:16:28;;;;;;;6.13;3.00;;;32.30;35.50;;;;;;5007886;28;20456;-84
2023/05/26 11:18:58;;;;;;;5.60;2.70;;;32.50;34.40;;;;;;5007881;28;20442;-82
2023/05/26 11:21:28;;;;;;;8.83;2.37;;;32.30;34.20;;;;;;5009890;28;20435;-83
2023/05/26 11:23:57;;;;;;;6.70;2.77;;;32.50;35.40;;;;;;5004511;28;20454;-82
2023/05/26 11:26:27;;;;;;;4.40;2.40;;;33.30;35.00;;;;;;4996965;28;20441;-83
2023/05/26 11:28:56;;;;;;;6.77;2.70;;;34.10;33.90;;;;;;5005798;28;20521;-82
2023/05/26 11:31:26;;;;;;;8.27;3.10;;;34.30;31.80;;;;;;5004963;28;20480;-82
2023/05/26 11:33:54;;;;;;;5.90;2.33;;;34.20;31.60;;;;;;4997555;28;20525;-83
2023/05/26 11:36:24;;;;;;;5.17;2.57;;;33.80;31.70;;;;;;5000126;28;20476;-83
2023/05/26 11:38:56;;;;;;;6.50;2.53;;;34.10;33.40;;;;;;5005137;28;20446;-83
2023/05/26 11:41:25;;;;;;;5.17;2.83;;;35.00;32.40;;;;;;5007827;28;20445;-82
2023/05/26 11:43:54;;;;;;;6.20;3.30;;;34.60;30.40;;;;;;5008101;28;20433;-82
2023/05/26 11:46:23;;;;;;;11.23;2.50;;;34.10;31.10;;;;;;5008751;28;20514;-82
2023/05/26 11:48:52;;;;;;;3.47;2.33;;;33.60;31.60;;;;;;5010350;28;20455;-82
2023/05/26 11:51:20;;;;;;;5.33;2.50;;;33.40;32.30;;;;;;5008328;28;20464;-82
2023/05/26 11:53:53;;;;;;;6.10;2.33;;;34.30;32.60;;;;;;5003622;28;20449;-85
2023/05/26 11:56:21;;;;;;;3.60;2.50;;;35.00;30.80;;;;;;5002946;28;20483;-83
2023/05/26 11:58:50;;;;;;;6.90;2.43;;;35.20;30.30;;;;;;5000315;28;20452;-84
2023/05/26 12:01:21;;;;;;;3.83;2.53;;;35.90;30.50;;;;;;5001806;28;20457;-83
2023/05/26 12:03:51;;;;;;;4.13;2.50;;;36.30;29.10;;;;;;5006236;28;20909;-83
2023/05/26 12:06:20;;;;;;;7.60;2.00;;;35.50;29.80;;;;;;5002036;28;20453;-83
2023/05/26 12:08:51;;;;;;;4.30;2.20;;;35.50;30.20;;;;;;5005157;28;20457;-83
2023/05/26 12:11:21;;;;;;;7.37;2.70;;;35.30;29.80;;;;;;4994281;28;20446;-84
2023/05/26 12:13:50;;;;;;;3.90;2.10;;;35.00;31.20;;;;;;5002493;28;20446;-83
2023/05/26 12:16:22;;;;;;;3.33;2.37;;;35.00;30.00;;;;;;5005527;28;20504;-83
2023/05/26 12:18:55;;;;;;;3.70;2.20;;;35.10;30.00;;;;;;5006940;28;20453;-83
2023/05/26 12:21:23;;;;;;;3.20;2.50;;;34.80;31.30;;;;;;5001761;28;20472;-83
2023/05/26 12:23:54;;;;;;;5.60;2.40;;;35.70;30.20;;;;;;5005349;28;20476;-82
2023/05/26 12:26:25;;;;;;;2.27;2.07;;;35.80;30.30;;;;;;5004482;28;20958;-83
2023/05/26 12:29:10;;;;;;;2.83;2.27;;;37.00;29.30;;;;;;4997101;28;20451;-83
2023/05/26 12:31:45;;;;;;;3.60;2.37;;;37.10;28.70;;;;;;4998407;28;20465;-83
2023/05/26 12:34:14;;;;;;;4.07;2.57;;;36.70;28.70;;;;;;4994811;28;20470;-81
2023/05/26 12:36:42;;;;;;;2.60;2.40;;;35.70;29.20;;;;;;5000273;28;20473;-83
2023/05/26 12:39:13;;;;;;;4.80;2.50;;;34.80;29.90;;;;;;5000874;28;20461;-82
2023/05/26 12:41:42;;;;;;;3.90;2.27;;;34.10;30.80;;;;;;4997981;28;20470;-83
2023/05/26 12:44:10;;;;;;;4.53;2.40;;;33.90;31.40;;;;;;5004379;28;20468;-83
2023/05/26 12:46:40;;;;;;;3.60;2.20;;;33.60;31.70;;;;;;4999242;28;20469;-85
2023/05/26 12:49:08;;;;;;;4.43;2.80;;;33.40;31.70;;;;;;5002365;28;20445;-84
2023/05/26 12:51:38;;;;;;;4.90;2.30;;;33.10;32.10;;;;;;5001511;28;20469;-84
2023/05/26 12:54:06;;;;;;;4.23;2.60;;;32.80;32.40;;;;;;5006177;28;20464;-83
2023/05/26 12:56:36;;;;;;;4.43;2.70;;;32.50;32.80;;;;;;5006398;28;20453;-84
2023/05/26 12:59:04;;;;;;;3.33;2.40;;;32.10;33.00;;;;;;4998350;28;20450;-82
2023/05/26 13:01:45;;;;;;;3.70;2.40;;;31.90;33.40;;;;;;4999041;28;20484;-82